sensor_id;sensor_type;location;lat;lon;timestamp;pressure;altitude;pressure_sealevel;temperature;humidity
29371;BME280;16357;52.188;7.838;2022-09-16T00:00:50;100158.91;;;15.05;60.97
29371;BME280;16357;52.188;7.838;2022-09-16T00:03:17;100159.56;;;15.07;60.88
29371;BME280;16357;52.188;7.838;2022-09-16T00:05:49;100160.22;;;15.09;60.49
29371;BME280;16357;52.188;7.838;2022-09-16T00:08:16;100158.13;;;15.11;60.63
29371;BME280;16357;52.188;7.838;2022-09-16T00:10:44;100154.59;;;15.10;60.69
29371;BME280;16357;52.188;7.838;2022-09-16T00:13:11;100157.75;;;15.14;60.58
29371;BME280;16357;52.188;7.838;2022-09-16T00:15:43;100158.56;;;15.14;60.34
29371;BME280;16357;52.188;7.838;2022-09-16T00:18:09;100153.34;;;15.13;60.67
29371;BME280;16357;52.188;7.838;2022-09-16T00:20:43;100164.78;;;15.15;60.02
29371;BME280;16357;52.188;7.838;2022-09-16T00:23:09;100158.75;;;15.13;60.32
29371;BME280;16357;52.188;7.838;2022-09-16T00:25:36;100159.78;;;15.12;60.27
29371;BME280;16357;52.188;7.838;2022-09-16T00:28:02;100160.81;;;15.11;60.20
29371;BME280;16357;52.188;7.838;2022-09-16T00:30:29;100154.16;;;15.07;60.04
29371;BME280;16357;52.188;7.838;2022-09-16T00:32:55;100160.97;;;15.03;60.09
29371;BME280;16357;52.188;7.838;2022-09-16T00:35:22;100157.84;;;14.99;59.92
29371;BME280;16357;52.188;7.838;2022-09-16T00:37:48;100163.84;;;14.95;60.15
29371;BME280;16357;52.188;7.838;2022-09-16T00:40:15;100169.84;;;14.90;60.13
29371;BME280;16357;52.188;7.838;2022-09-16T00:42:41;100174.00;;;14.86;60.18
29371;BME280;16357;52.188;7.838;2022-09-16T00:45:19;100169.19;;;14.81;60.11
29371;BME280;16357;52.188;7.838;2022-09-16T00:47:54;100176.84;;;14.78;60.02
29371;BME280;16357;52.188;7.838;2022-09-16T00:52:56;100169.91;;;14.68;60.57
29371;BME280;16357;52.188;7.838;2022-09-16T00:55:33;100170.13;;;14.67;60.19
29371;BME280;16357;52.188;7.838;2022-09-16T01:01:01;100174.63;;;14.60;60.20
29371;BME280;16357;52.188;7.838;2022-09-16T01:03:29;100165.25;;;14.56;60.42
29371;BME280;16357;52.188;7.838;2022-09-16T01:05:56;100165.66;;;14.53;60.34
29371;BME280;16357;52.188;7.838;2022-09-16T01:08:23;100163.50;;;14.48;60.58
29371;BME280;16357;52.188;7.838;2022-09-16T01:10:50;100165.78;;;14.44;60.42
29371;BME280;16357;52.188;7.838;2022-09-16T01:13:18;100161.81;;;14.40;60.42
29371;BME280;16357;52.188;7.838;2022-09-16T01:18:44;100165.91;;;14.36;60.33
29371;BME280;16357;52.188;7.838;2022-09-16T01:30:06;100182.25;;;14.28;60.67
29371;BME280;16357;52.188;7.838;2022-09-16T01:33:02;100171.47;;;14.28;60.81
29371;BME280;16357;52.188;7.838;2022-09-16T01:35:59;100170.63;;;14.27;61.00
29371;BME280;16357;52.188;7.838;2022-09-16T01:38:42;100169.59;;;14.28;61.07
29371;BME280;16357;52.188;7.838;2022-09-16T01:41:57;100168.53;;;14.30;60.80
29371;BME280;16357;52.188;7.838;2022-09-16T01:47:03;100169.41;;;14.30;61.08
29371;BME280;16357;52.188;7.838;2022-09-16T01:49:42;100162.31;;;14.29;60.75
29371;BME280;16357;52.188;7.838;2022-09-16T01:55:05;100162.31;;;14.29;60.67
29371;BME280;16357;52.188;7.838;2022-09-16T02:00:17;100157.53;;;14.24;61.14
29371;BME280;16357;52.188;7.838;2022-09-16T02:05:18;100160.59;;;14.21;61.03
29371;BME280;16357;52.188;7.838;2022-09-16T02:07:51;100159.97;;;14.19;60.98
29371;BME280;16357;52.188;7.838;2022-09-16T02:10:41;100163.50;;;14.20;61.35
29371;BME280;16357;52.188;7.838;2022-09-16T02:13:26;100164.50;;;14.19;61.19
29371;BME280;16357;52.188;7.838;2022-09-16T02:15:59;100168.69;;;14.21;61.49
29371;BME280;16357;52.188;7.838;2022-09-16T02:18:32;100159.59;;;14.22;61.55
29371;BME280;16357;52.188;7.838;2022-09-16T02:21:02;100170.16;;;14.24;61.54
29371;BME280;16357;52.188;7.838;2022-09-16T02:23:37;100165.22;;;14.27;61.69
29371;BME280;16357;52.188;7.838;2022-09-16T02:26:08;100173.75;;;14.31;61.91
29371;BME280;16357;52.188;7.838;2022-09-16T02:28:38;100166.31;;;14.33;61.73
29371;BME280;16357;52.188;7.838;2022-09-16T02:31:08;100160.69;;;14.35;61.87
29371;BME280;16357;52.188;7.838;2022-09-16T02:33:44;100162.00;;;14.39;61.82
29371;BME280;16357;52.188;7.838;2022-09-16T02:36:18;100156.19;;;14.42;61.70
29371;BME280;16357;52.188;7.838;2022-09-16T02:38:50;100156.63;;;14.45;61.58
29371;BME280;16357;52.188;7.838;2022-09-16T02:41:19;100162.03;;;14.45;61.54
29371;BME280;16357;52.188;7.838;2022-09-16T02:43:45;100164.53;;;14.47;61.79
29371;BME280;16357;52.188;7.838;2022-09-16T02:49:41;100155.03;;;14.51;61.28
29371;BME280;16357;52.188;7.838;2022-09-16T02:52:12;100146.94;;;14.51;61.31
29371;BME280;16357;52.188;7.838;2022-09-16T02:55:02;100138.66;;;14.53;61.33
29371;BME280;16357;52.188;7.838;2022-09-16T02:57:31;100145.06;;;14.52;61.51
29371;BME280;16357;52.188;7.838;2022-09-16T02:59:58;100143.38;;;14.50;61.27
29371;BME280;16357;52.188;7.838;2022-09-16T03:02:24;100147.13;;;14.49;61.19
29371;BME280;16357;52.188;7.838;2022-09-16T03:04:51;100153.34;;;14.50;61.24
29371;BME280;16357;52.188;7.838;2022-09-16T03:07:17;100154.19;;;14.50;61.56
29371;BME280;16357;52.188;7.838;2022-09-16T03:09:46;100155.03;;;14.51;61.29
29371;BME280;16357;52.188;7.838;2022-09-16T03:12:36;100153.16;;;14.52;60.88
29371;BME280;16357;52.188;7.838;2022-09-16T03:15:32;100154.19;;;14.50;61.02
29371;BME280;16357;52.188;7.838;2022-09-16T03:20:46;100152.53;;;14.49;61.04
29371;BME280;16357;52.188;7.838;2022-09-16T03:28:57;100155.03;;;14.51;61.47
29371;BME280;16357;52.188;7.838;2022-09-16T03:31:32;100150.47;;;14.52;61.20
29371;BME280;16357;52.188;7.838;2022-09-16T03:34:18;100152.16;;;14.53;61.37
29371;BME280;16357;52.188;7.838;2022-09-16T03:36:55;100170.19;;;14.52;60.93
29371;BME280;16357;52.188;7.838;2022-09-16T03:39:24;100162.50;;;14.49;61.25
29371;BME280;16357;52.188;7.838;2022-09-16T03:41:50;100154.56;;;14.47;61.51
29371;BME280;16357;52.188;7.838;2022-09-16T03:44:17;100146.69;;;14.46;61.42
29371;BME280;16357;52.188;7.838;2022-09-16T03:46:44;100145.00;;;14.45;61.52
29371;BME280;16357;52.188;7.838;2022-09-16T03:49:11;100133.78;;;14.41;61.57
29371;BME280;16357;52.188;7.838;2022-09-16T03:51:37;100133.13;;;14.39;61.20
29371;BME280;16357;52.188;7.838;2022-09-16T03:54:04;100136.06;;;14.38;61.66
29371;BME280;16357;52.188;7.838;2022-09-16T03:56:30;100142.66;;;14.35;61.81
29371;BME280;16357;52.188;7.838;2022-09-16T03:58:57;100141.00;;;14.34;61.67
29371;BME280;16357;52.188;7.838;2022-09-16T04:01:23;100142.84;;;14.34;61.60
29371;BME280;16357;52.188;7.838;2022-09-16T04:03:50;100143.03;;;14.32;62.15
29371;BME280;16357;52.188;7.838;2022-09-16T04:06:17;100142.44;;;14.30;62.03
29371;BME280;16357;52.188;7.838;2022-09-16T04:08:44;100147.19;;;14.28;61.68
29371;BME280;16357;52.188;7.838;2022-09-16T04:11:10;100143.81;;;14.26;61.82
29371;BME280;16357;52.188;7.838;2022-09-16T04:13:37;100137.78;;;14.24;61.87
29371;BME280;16357;52.188;7.838;2022-09-16T04:16:03;100140.69;;;14.22;61.94
29371;BME280;16357;52.188;7.838;2022-09-16T04:18:31;100147.31;;;14.20;62.03
29371;BME280;16357;52.188;7.838;2022-09-16T04:20:59;100143.97;;;14.18;62.40
29371;BME280;16357;52.188;7.838;2022-09-16T04:23:27;100153.09;;;14.17;62.68
29371;BME280;16357;52.188;7.838;2022-09-16T04:25:55;100152.47;;;14.15;62.71
29371;BME280;16357;52.188;7.838;2022-09-16T04:28:22;100151.63;;;14.14;62.83
29371;BME280;16357;52.188;7.838;2022-09-16T04:30:48;100138.97;;;14.15;63.00
29371;BME280;16357;52.188;7.838;2022-09-16T04:33:15;100136.28;;;14.15;62.78
29371;BME280;16357;52.188;7.838;2022-09-16T04:35:42;100135.44;;;14.14;63.13
29371;BME280;16357;52.188;7.838;2022-09-16T04:38:08;100136.28;;;14.15;63.17
29371;BME280;16357;52.188;7.838;2022-09-16T04:40:34;100130.88;;;14.15;62.88
29371;BME280;16357;52.188;7.838;2022-09-16T04:43:01;100128.19;;;14.15;63.11
29371;BME280;16357;52.188;7.838;2022-09-16T04:45:27;100137.28;;;14.14;63.21
29371;BME280;16357;52.188;7.838;2022-09-16T04:47:55;100128.38;;;14.13;63.12
29371;BME280;16357;52.188;7.838;2022-09-16T04:50:23;100132.94;;;14.13;63.05
29371;BME280;16357;52.188;7.838;2022-09-16T04:52:52;100133.97;;;14.12;63.08
29371;BME280;16357;52.188;7.838;2022-09-16T04:55:19;100131.47;;;14.10;62.86
29371;BME280;16357;52.188;7.838;2022-09-16T04:57:48;100129.81;;;14.09;63.15
29371;BME280;16357;52.188;7.838;2022-09-16T05:00:15;100136.41;;;14.07;63.05
29371;BME280;16357;52.188;7.838;2022-09-16T05:02:45;100132.25;;;14.04;62.81
29371;BME280;16357;52.188;7.838;2022-09-16T05:05:12;100137.16;;;14.00;63.36
29371;BME280;16357;52.188;7.838;2022-09-16T05:07:38;100143.78;;;13.98;63.30
29371;BME280;16357;52.188;7.838;2022-09-16T05:10:05;100151.44;;;13.94;63.26
29371;BME280;16357;52.188;7.838;2022-09-16T05:12:31;100139.16;;;13.92;63.40
29371;BME280;16357;52.188;7.838;2022-09-16T05:14:58;100139.56;;;13.89;63.40
29371;BME280;16357;52.188;7.838;2022-09-16T05:17:24;100140.78;;;13.86;63.36
29371;BME280;16357;52.188;7.838;2022-09-16T05:20:11;100147.84;;;13.87;62.84
29371;BME280;16357;52.188;7.838;2022-09-16T05:22:37;100141.19;;;13.83;63.02
29371;BME280;16357;52.188;7.838;2022-09-16T05:25:04;100145.28;;;13.79;63.43
29371;BME280;16357;52.188;7.838;2022-09-16T05:27:32;100151.88;;;13.76;63.66
29371;BME280;16357;52.188;7.838;2022-09-16T05:29:59;100142.31;;;13.74;63.80
29371;BME280;16357;52.188;7.838;2022-09-16T05:32:25;100155.16;;;13.72;64.22
29371;BME280;16357;52.188;7.838;2022-09-16T05:34:52;100156.81;;;13.73;64.23
29371;BME280;16357;52.188;7.838;2022-09-16T05:37:19;100156.81;;;13.73;64.37
29371;BME280;16357;52.188;7.838;2022-09-16T05:39:46;100150.59;;;13.72;64.06
29371;BME280;16357;52.188;7.838;2022-09-16T05:42:12;100146.03;;;13.73;63.87
29371;BME280;16357;52.188;7.838;2022-09-16T05:44:39;100156.00;;;13.72;64.03
29371;BME280;16357;52.188;7.838;2022-09-16T05:47:05;100139.19;;;13.70;64.07
29371;BME280;16357;52.188;7.838;2022-09-16T05:49:32;100153.47;;;13.71;64.09
29371;BME280;16357;52.188;7.838;2022-09-16T05:51:58;100150.13;;;13.69;64.10
29371;BME280;16357;52.188;7.838;2022-09-16T05:54:24;100147.66;;;13.67;64.20
29371;BME280;16357;52.188;7.838;2022-09-16T05:56:51;100149.53;;;13.67;64.36
29371;BME280;16357;52.188;7.838;2022-09-16T05:59:18;100147.66;;;13.67;64.50
29371;BME280;16357;52.188;7.838;2022-09-16T06:01:44;100148.47;;;13.68;64.25
29371;BME280;16357;52.188;7.838;2022-09-16T06:04:12;100146.44;;;13.70;64.26
29371;BME280;16357;52.188;7.838;2022-09-16T06:06:44;100155.16;;;13.72;63.95
29371;BME280;16357;52.188;7.838;2022-09-16T06:09:20;100151.44;;;13.73;64.08
29371;BME280;16357;52.188;7.838;2022-09-16T06:11:48;100159.31;;;13.74;64.37
29371;BME280;16357;52.188;7.838;2022-09-16T06:14:17;100155.63;;;13.75;64.35
29371;BME280;16357;52.188;7.838;2022-09-16T06:16:44;100159.78;;;13.78;64.71
29371;BME280;16357;52.188;7.838;2022-09-16T06:19:13;100158.75;;;13.79;64.59
29371;BME280;16357;52.188;7.838;2022-09-16T06:21:41;100149.44;;;13.81;64.62
29371;BME280;16357;52.188;7.838;2022-09-16T06:24:09;100151.56;;;13.86;64.71
29371;BME280;16357;52.188;7.838;2022-09-16T06:26:38;100158.25;;;13.90;64.67
29371;BME280;16357;52.188;7.838;2022-09-16T06:29:05;100151.63;;;13.93;64.55
29371;BME280;16357;52.188;7.838;2022-09-16T06:31:33;100151.69;;;13.99;64.38
29371;BME280;16357;52.188;7.838;2022-09-16T06:33:59;100150.47;;;14.02;64.54
29371;BME280;16357;52.188;7.838;2022-09-16T06:36:28;100151.56;;;14.08;64.40
29371;BME280;16357;52.188;7.838;2022-09-16T06:38:55;100149.28;;;14.11;63.95
29371;BME280;16357;52.188;7.838;2022-09-16T06:41:22;100141.47;;;14.16;63.76
29371;BME280;16357;52.188;7.838;2022-09-16T06:43:48;100153.53;;;14.20;63.87
29371;BME280;16357;52.188;7.838;2022-09-16T06:46:22;100137.59;;;14.25;63.52
29371;BME280;16357;52.188;7.838;2022-09-16T06:48:51;100141.56;;;14.30;63.64
29371;BME280;16357;52.188;7.838;2022-09-16T06:51:21;100132.88;;;14.34;63.12
29371;BME280;16357;52.188;7.838;2022-09-16T06:53:49;100136.06;;;14.38;62.97
29371;BME280;16357;52.188;7.838;2022-09-16T06:56:18;100132.13;;;14.40;62.90
29371;BME280;16357;52.188;7.838;2022-09-16T06:58:47;100128.81;;;14.45;62.93
29371;BME280;16357;52.188;7.838;2022-09-16T07:01:17;100139.03;;;14.49;62.99
29371;BME280;16357;52.188;7.838;2022-09-16T07:03:45;100143.88;;;14.54;63.26
29371;BME280;16357;52.188;7.838;2022-09-16T07:06:13;100138.91;;;14.58;62.92
29371;BME280;16357;52.188;7.838;2022-09-16T07:08:41;100140.81;;;14.64;62.85
29371;BME280;16357;52.188;7.838;2022-09-16T07:11:28;100139.81;;;14.71;62.60
29371;BME280;16357;52.188;7.838;2022-09-16T07:13:54;100147.34;;;14.76;62.64
29371;BME280;16357;52.188;7.838;2022-09-16T07:16:22;100143.81;;;14.82;62.71
29371;BME280;16357;52.188;7.838;2022-09-16T07:18:57;100151.78;;;14.90;62.65
29371;BME280;16357;52.188;7.838;2022-09-16T07:21:27;100149.34;;;14.96;61.95
29371;BME280;16357;52.188;7.838;2022-09-16T07:23:57;100150.00;;;15.04;62.07
29371;BME280;16357;52.188;7.838;2022-09-16T07:26:26;100157.09;;;15.12;62.08
29371;BME280;16357;52.188;7.838;2022-09-16T07:28:54;100151.72;;;15.19;61.69
29371;BME280;16357;52.188;7.838;2022-09-16T07:31:23;100149.06;;;15.25;61.43
29371;BME280;16357;52.188;7.838;2022-09-16T07:33:52;100153.44;;;15.33;61.25
29371;BME280;16357;52.188;7.838;2022-09-16T07:36:21;100154.09;;;15.42;60.75
29371;BME280;16357;52.188;7.838;2022-09-16T07:38:49;100153.09;;;15.49;60.83
29371;BME280;16357;52.188;7.838;2022-09-16T07:41:17;100144.97;;;15.56;60.87
29371;BME280;16357;52.188;7.838;2022-09-16T07:43:45;100155.63;;;15.64;60.50
29371;BME280;16357;52.188;7.838;2022-09-16T07:46:14;100150.66;;;15.74;60.64
29371;BME280;16357;52.188;7.838;2022-09-16T07:48:45;100161.31;;;15.83;60.38
29371;BME280;16357;52.188;7.838;2022-09-16T07:51:15;100172.56;;;15.93;59.77
29371;BME280;16357;52.188;7.838;2022-09-16T07:53:42;100156.97;;;16.01;59.41
29371;BME280;16357;52.188;7.838;2022-09-16T07:56:17;100164.66;;;16.11;59.02
29371;BME280;16357;52.188;7.838;2022-09-16T07:58:45;100160.09;;;16.18;58.37
29371;BME280;16357;52.188;7.838;2022-09-16T08:01:13;100162.81;;;16.25;57.69
29371;BME280;16357;52.188;7.838;2022-09-16T08:03:41;100160.94;;;16.32;57.72
29371;BME280;16357;52.188;7.838;2022-09-16T08:06:10;100155.72;;;16.37;57.36
29371;BME280;16357;52.188;7.838;2022-09-16T08:08:38;100167.63;;;16.43;57.46
29371;BME280;16357;52.188;7.838;2022-09-16T08:11:06;100163.44;;;16.47;56.82
29371;BME280;16357;52.188;7.838;2022-09-16T08:13:38;100168.22;;;16.52;56.19
29371;BME280;16357;52.188;7.838;2022-09-16T08:16:11;100164.03;;;16.56;56.49
29371;BME280;16357;52.188;7.838;2022-09-16T08:18:39;100166.56;;;16.57;56.25
29371;BME280;16357;52.188;7.838;2022-09-16T08:21:11;100167.81;;;16.61;55.62
29371;BME280;16357;52.188;7.838;2022-09-16T08:23:38;100165.28;;;16.66;55.43
29371;BME280;16357;52.188;7.838;2022-09-16T08:26:06;100169.06;;;16.72;54.87
29371;BME280;16357;52.188;7.838;2022-09-16T08:28:33;100163.63;;;16.79;54.00
29371;BME280;16357;52.188;7.838;2022-09-16T08:31:20;100174.69;;;16.91;55.42
29371;BME280;16357;52.188;7.838;2022-09-16T08:33:46;100171.09;;;16.97;53.50
29371;BME280;16357;52.188;7.838;2022-09-16T08:36:19;100165.66;;;17.03;52.92
29371;BME280;16357;52.188;7.838;2022-09-16T08:38:49;100166.28;;;17.12;52.74
29371;BME280;16357;52.188;7.838;2022-09-16T08:41:35;100162.25;;;17.21;53.13
29371;BME280;16357;52.188;7.838;2022-09-16T08:49:44;100162.13;;;17.54;51.06
29371;BME280;16357;52.188;7.838;2022-09-16T08:52:33;100164.78;;;17.68;51.32
29371;BME280;16357;52.188;7.838;2022-09-16T08:55:11;100167.44;;;17.81;51.37
29371;BME280;16357;52.188;7.838;2022-09-16T09:00:33;100144.75;;;18.01;49.98
29371;BME280;16357;52.188;7.838;2022-09-16T09:03:15;100170.34;;;18.11;50.14
29371;BME280;16357;52.188;7.838;2022-09-16T09:05:50;100175.53;;;18.19;49.64
29371;BME280;16357;52.188;7.838;2022-09-16T09:13:56;100169.78;;;18.34;48.05
29371;BME280;16357;52.188;7.838;2022-09-16T09:19:05;100175.16;;;18.41;47.43
29371;BME280;16357;52.188;7.838;2022-09-16T09:22:07;100160.47;;;18.49;48.46
29371;BME280;16357;52.188;7.838;2022-09-16T09:30:14;100150.72;;;18.84;47.09
29371;BME280;16357;52.188;7.838;2022-09-16T09:37:58;100153.75;;;19.13;46.10
29371;BME280;16357;52.188;7.838;2022-09-16T09:41:02;100159.50;;;19.23;45.88
29371;BME280;16357;52.188;7.838;2022-09-16T09:43:40;100161.28;;;19.29;45.09
29371;BME280;16357;52.188;7.838;2022-09-16T09:46:21;100163.94;;;19.36;45.09
29371;BME280;16357;52.188;7.838;2022-09-16T09:49:01;100150.09;;;19.38;44.58
29371;BME280;16357;52.188;7.838;2022-09-16T09:51:33;100144.22;;;19.41;44.76
29371;BME280;16357;52.188;7.838;2022-09-16T09:54:04;100146.69;;;19.42;43.88
29371;BME280;16357;52.188;7.838;2022-09-16T09:56:44;100135.59;;;19.44;44.09
29371;BME280;16357;52.188;7.838;2022-09-16T09:59:27;100136.66;;;19.43;43.76
29371;BME280;16357;52.188;7.838;2022-09-16T10:01:59;100141.03;;;19.44;43.24
29371;BME280;16357;52.188;7.838;2022-09-16T10:04:36;100141.03;;;19.44;43.04
29371;BME280;16357;52.188;7.838;2022-09-16T10:07:03;100134.78;;;19.43;42.43
29371;BME280;16357;52.188;7.838;2022-09-16T10:09:31;100132.28;;;19.42;42.75
29371;BME280;16357;52.188;7.838;2022-09-16T10:11:58;100107.78;;;19.42;42.64
29371;BME280;16357;52.188;7.838;2022-09-16T10:14:36;100125.75;;;19.43;42.45
29371;BME280;16357;52.188;7.838;2022-09-16T10:17:15;100128.63;;;19.48;42.65
29371;BME280;16357;52.188;7.838;2022-09-16T10:19:56;100126.28;;;19.51;42.26
29371;BME280;16357;52.188;7.838;2022-09-16T10:22:28;100124.75;;;19.56;42.44
29371;BME280;16357;52.188;7.838;2022-09-16T10:24:57;100115.91;;;19.60;41.88
29371;BME280;16357;52.188;7.838;2022-09-16T10:27:27;100130.28;;;19.67;41.83
29371;BME280;16357;52.188;7.838;2022-09-16T10:30:15;100110.91;;;19.76;42.46
29371;BME280;16357;52.188;7.838;2022-09-16T10:33:04;100117.66;;;19.85;42.41
29371;BME280;16357;52.188;7.838;2022-09-16T10:35:37;100103.28;;;19.96;42.32
29371;BME280;16357;52.188;7.838;2022-09-16T10:38:48;100121.50;;;20.07;43.08
29371;BME280;16357;52.188;7.838;2022-09-16T10:41:29;100125.53;;;20.16;42.27
29371;BME280;16357;52.188;7.838;2022-09-16T10:43:58;100128.03;;;20.18;40.69
29371;BME280;16357;52.188;7.838;2022-09-16T10:47:00;100106.47;;;20.16;41.13
29371;BME280;16357;52.188;7.838;2022-09-16T10:49:54;100101.97;;;20.10;40.71
29371;BME280;16357;52.188;7.838;2022-09-16T10:52:23;100093.06;;;20.03;41.30
29371;BME280;16357;52.188;7.838;2022-09-16T10:54:50;100081.22;;;19.98;40.68
29371;BME280;16357;52.188;7.838;2022-09-16T10:57:28;100097.94;;;20.01;40.89
29371;BME280;16357;52.188;7.838;2022-09-16T11:05:55;100080.44;;;20.32;40.20
29371;BME280;16357;52.188;7.838;2022-09-16T11:08:48;100093.81;;;20.46;40.29
29371;BME280;16357;52.188;7.838;2022-09-16T11:11:42;100095.75;;;20.57;42.35
29371;BME280;16357;52.188;7.838;2022-09-16T11:22:44;100139.91;;;19.82;47.90
29371;BME280;16357;52.188;7.838;2022-09-16T11:33:50;100156.50;;;16.98;56.72
29371;BME280;16357;52.188;7.838;2022-09-16T11:36:35;100173.88;;;16.43;58.30
29371;BME280;16357;52.188;7.838;2022-09-16T11:39:42;100176.13;;;15.93;59.63
29371;BME280;16357;52.188;7.838;2022-09-16T11:45:39;100181.44;;;15.19;62.37
29371;BME280;16357;52.188;7.838;2022-09-16T11:56:47;100153.69;;;14.62;68.00
29371;BME280;16357;52.188;7.838;2022-09-16T12:02:24;100139.44;;;14.75;69.18
29371;BME280;16357;52.188;7.838;2022-09-16T12:04:59;100132.84;;;14.84;69.84
29371;BME280;16357;52.188;7.838;2022-09-16T12:10:03;100125.69;;;15.11;69.42
29371;BME280;16357;52.188;7.838;2022-09-16T12:12:35;100121.81;;;15.27;70.30
29371;BME280;16357;52.188;7.838;2022-09-16T12:15:38;100112.72;;;15.48;69.28
29371;BME280;16357;52.188;7.838;2022-09-16T12:18:10;100102.63;;;15.70;68.75
29371;BME280;16357;52.188;7.838;2022-09-16T12:20:45;100101.81;;;15.89;67.40
29371;BME280;16357;52.188;7.838;2022-09-16T12:23:27;100108.06;;;16.10;66.00
29371;BME280;16357;52.188;7.838;2022-09-16T12:26:07;100092.84;;;16.29;66.05
29371;BME280;16357;52.188;7.838;2022-09-16T12:28:54;100086.56;;;16.48;64.68
29371;BME280;16357;52.188;7.838;2022-09-16T12:31:45;100103.22;;;16.65;63.83
29371;BME280;16357;52.188;7.838;2022-09-16T12:34:18;100099.25;;;16.81;61.96
29371;BME280;16357;52.188;7.838;2022-09-16T12:36:53;100093.59;;;16.96;61.58
29371;BME280;16357;52.188;7.838;2022-09-16T12:39:21;100084.53;;;17.08;59.23
29371;BME280;16357;52.188;7.838;2022-09-16T12:47:44;100076.22;;;17.48;55.88
29371;BME280;16357;52.188;7.838;2022-09-16T13:01:30;100105.88;;;18.07;48.95
29371;BME280;16357;52.188;7.838;2022-09-16T13:04:07;100072.78;;;18.16;47.56
29371;BME280;16357;52.188;7.838;2022-09-16T13:06:42;100078.19;;;18.23;47.87
29371;BME280;16357;52.188;7.838;2022-09-16T13:12:27;100066.13;;;18.37;45.92
29371;BME280;16357;52.188;7.838;2022-09-16T13:15:30;100063.09;;;18.46;47.44
29371;BME280;16357;52.188;7.838;2022-09-16T13:20:50;100062.75;;;18.60;46.84
29371;BME280;16357;52.188;7.838;2022-09-16T13:23:22;100064.34;;;18.68;45.71
29371;BME280;16357;52.188;7.838;2022-09-16T13:31:18;100081.13;;;18.83;44.55
29371;BME280;16357;52.188;7.838;2022-09-16T13:38:53;100069.13;;;18.91;44.87
29371;BME280;16357;52.188;7.838;2022-09-16T13:41:30;100063.84;;;18.96;45.18
29371;BME280;16357;52.188;7.838;2022-09-16T13:43:57;100046.00;;;19.00;45.00
29371;BME280;16357;52.188;7.838;2022-09-16T13:46:35;100059.53;;;19.07;45.13
29371;BME280;16357;52.188;7.838;2022-09-16T13:51:32;100054.38;;;19.17;44.13
29371;BME280;16357;52.188;7.838;2022-09-16T13:54:01;100053.22;;;19.25;44.22
29371;BME280;16357;52.188;7.838;2022-09-16T13:56:57;100065.78;;;19.38;44.42
29371;BME280;16357;52.188;7.838;2022-09-16T14:10:32;100067.97;;;19.78;42.66
29371;BME280;16357;52.188;7.838;2022-09-16T14:13:16;100064.63;;;19.76;41.75
29371;BME280;16357;52.188;7.838;2022-09-16T14:15:55;100069.94;;;19.70;42.51
29371;BME280;16357;52.188;7.838;2022-09-16T14:18:28;100062.09;;;19.62;42.42
29371;BME280;16357;52.188;7.838;2022-09-16T14:21:20;100068.00;;;19.59;42.18
29371;BME280;16357;52.188;7.838;2022-09-16T14:23:47;100079.31;;;19.56;42.13
29371;BME280;16357;52.188;7.838;2022-09-16T14:26:19;100085.22;;;19.53;42.06
29371;BME280;16357;52.188;7.838;2022-09-16T14:28:46;100065.84;;;19.49;42.54
29371;BME280;16357;52.188;7.838;2022-09-16T14:31:29;100092.28;;;19.42;43.12
29371;BME280;16357;52.188;7.838;2022-09-16T14:34:02;100085.75;;;19.32;43.07
29371;BME280;16357;52.188;7.838;2022-09-16T14:36:33;100077.69;;;19.25;44.02
29371;BME280;16357;52.188;7.838;2022-09-16T14:41:40;100082.47;;;18.93;43.21
29371;BME280;16357;52.188;7.838;2022-09-16T14:46:47;100080.28;;;18.64;44.18
29371;BME280;16357;52.188;7.838;2022-09-16T14:49:16;100072.44;;;18.56;44.44
29371;BME280;16357;52.188;7.838;2022-09-16T14:51:47;100075.00;;;18.51;44.28
29371;BME280;16357;52.188;7.838;2022-09-16T14:54:16;100060.19;;;18.47;44.22
29371;BME280;16357;52.188;7.838;2022-09-16T14:57:00;100058.28;;;18.48;44.76
29371;BME280;16357;52.188;7.838;2022-09-16T14:59:35;100067.03;;;18.50;45.30
29371;BME280;16357;52.188;7.838;2022-09-16T15:04:38;100062.59;;;18.55;44.70
29371;BME280;16357;52.188;7.838;2022-09-16T15:07:12;100059.22;;;18.60;44.65
29371;BME280;16357;52.188;7.838;2022-09-16T15:09:49;100065.25;;;18.62;44.90
29371;BME280;16357;52.188;7.838;2022-09-16T15:12:24;100058.75;;;18.63;44.71
29371;BME280;16357;52.188;7.838;2022-09-16T15:14:51;100054.59;;;18.60;44.17
29371;BME280;16357;52.188;7.838;2022-09-16T15:17:19;100072.78;;;18.60;43.45
29371;BME280;16357;52.188;7.838;2022-09-16T15:19:56;100052.94;;;18.59;43.85
29371;BME280;16357;52.188;7.838;2022-09-16T15:22:23;100040.88;;;18.55;43.59
29371;BME280;16357;52.188;7.838;2022-09-16T15:24:53;100055.28;;;18.56;42.68
29371;BME280;16357;52.188;7.838;2022-09-16T15:27:23;100061.31;;;18.58;43.76
29371;BME280;16357;52.188;7.838;2022-09-16T15:29:54;100046.44;;;18.60;43.92
29371;BME280;16357;52.188;7.838;2022-09-16T15:32:22;100054.75;;;18.65;43.72
29371;BME280;16357;52.188;7.838;2022-09-16T15:35:07;100056.16;;;18.75;43.97
29371;BME280;16357;52.188;7.838;2022-09-16T15:37:35;100040.84;;;18.80;43.66
29371;BME280;16357;52.188;7.838;2022-09-16T15:40:09;100041.13;;;18.91;43.31
29371;BME280;16357;52.188;7.838;2022-09-16T15:42:36;100037.47;;;18.97;43.53
29371;BME280;16357;52.188;7.838;2022-09-16T15:45:14;100048.66;;;19.07;43.81
29371;BME280;16357;52.188;7.838;2022-09-16T15:47:58;100046.69;;;19.14;43.30
29371;BME280;16357;52.188;7.838;2022-09-16T15:50:28;100049.50;;;19.19;42.91
29371;BME280;16357;52.188;7.838;2022-09-16T15:53:00;100040.66;;;19.24;41.80
29371;BME280;16357;52.188;7.838;2022-09-16T15:55:35;100038.34;;;19.27;41.18
29371;BME280;16357;52.188;7.838;2022-09-16T15:58:16;100047.66;;;19.32;41.25
29371;BME280;16357;52.188;7.838;2022-09-16T16:06:15;100071.19;;;19.26;42.41